createdAt,value
2019-04-07T00:02:13.138Z,96650.16
2019-04-07T00:04:42.985Z,96653.27
2019-04-07T00:07:13.838Z,96644.98
2019-04-07T00:09:43.663Z,96652.83
2019-04-07T00:12:13.783Z,96646.31
2019-04-07T00:14:43.741Z,96642.04
2019-04-07T00:17:13.808Z,96636.84
2019-04-07T00:19:43.649Z,96639.50
2019-04-07T00:22:13.388Z,96643.05
2019-04-07T00:24:42.891Z,96642.91
2019-04-07T00:27:12.292Z,96654.11
2019-04-07T00:29:41.733Z,96652.12
2019-04-07T00:32:11.296Z,96659.09
2019-04-07T00:34:41.334Z,96660.40
2019-04-07T00:37:10.835Z,96658.52
2019-04-07T00:39:40.234Z,96662.20
2019-04-07T00:42:09.620Z,96660.55
2019-04-07T00:44:39.039Z,96657.63
2019-04-07T00:47:08.417Z,96660.33
2019-04-07T00:49:37.794Z,96659.99
2019-04-07T00:52:08.300Z,96665.60
2019-04-07T00:54:38.044Z,96661.85
2019-04-07T00:57:07.480Z,96666.27
2019-04-07T00:59:36.873Z,96660.42
2019-04-07T01:02:06.926Z,96658.62
2019-04-07T01:04:36.549Z,96664.91
2019-04-07T01:07:05.918Z,96666.25
2019-04-07T01:09:35.333Z,96664.86
2019-04-07T01:12:04.969Z,96665.32
2019-04-07T01:14:34.465Z,96667.00
2019-04-07T01:17:04.629Z,96669.70
2019-04-07T01:19:34.408Z,96665.04
2019-04-07T01:22:03.975Z,96675.02
2019-04-07T01:24:33.366Z,96673.06
2019-04-07T01:27:02.886Z,96671.72
2019-04-07T01:29:32.295Z,96668.54
2019-04-07T01:32:01.676Z,96673.23
2019-04-07T01:34:31.547Z,96670.48
2019-04-07T01:37:01.067Z,96665.39
2019-04-07T01:39:30.653Z,96670.31
2019-04-07T01:42:25.496Z,96668.95
2019-04-07T01:45:18.193Z,96671.97
2019-04-07T01:47:56.865Z,96666.52
2019-04-07T01:50:43.088Z,96665.28
2019-04-07T01:53:20.164Z,96667.97
2019-04-07T01:56:09.637Z,96666.33
2019-04-07T01:59:07.374Z,96668.72
2019-04-07T02:01:45.115Z,96661.44
2019-04-07T02:04:42.517Z,96663.94
2019-04-07T02:07:34.741Z,96662.59
2019-04-07T02:10:15.159Z,96662.42
2019-04-07T02:13:06.417Z,96659.07
2019-04-07T02:16:03.976Z,96651.36
2019-04-07T02:18:43.223Z,96651.36
2019-04-07T02:21:27.388Z,96655.81
2019-04-07T02:24:14.497Z,96650.05
2019-04-07T02:27:02.815Z,96661.23
2019-04-07T02:29:40.771Z,96660.89
2019-04-07T02:32:27.903Z,96664.77
2019-04-07T02:35:19.017Z,96659.88
2019-04-07T02:37:59.473Z,96659.88
2019-04-07T02:40:47.297Z,96665.95
2019-04-07T02:43:42.477Z,96671.28
2019-04-07T02:46:44.115Z,96656.10
2019-04-07T02:49:39.386Z,96656.10
2019-04-07T02:52:26.880Z,96669.44
2019-04-07T02:55:21.880Z,96669.44
2019-04-07T02:58:06.592Z,96662.98
2019-04-07T03:00:57.894Z,96667.31
2019-04-07T03:04:01.955Z,96667.31
2019-04-07T03:06:52.441Z,96661.86
2019-04-07T03:09:28.348Z,96660.45
2019-04-07T03:12:10.456Z,96667.32
2019-04-07T03:15:05.043Z,96666.20
2019-04-07T03:17:43.826Z,96666.20
2019-04-07T03:20:32.565Z,96667.09
2019-04-07T03:23:18.296Z,96670.88
2019-04-07T03:26:07.804Z,96669.69
2019-04-07T03:28:49.446Z,96671.27
2019-04-07T03:31:34.359Z,96670.06
2019-04-07T03:34:25.349Z,96670.06
2019-04-07T03:37:29.716Z,96670.14
2019-04-07T03:40:18.367Z,96670.14
2019-04-07T03:42:59.356Z,96659.48
2019-04-07T03:45:43.631Z,96669.11
2019-04-07T03:48:28.345Z,96669.11
2019-04-07T03:51:06.790Z,96671.05
2019-04-07T03:53:54.126Z,96667.91
2019-04-07T03:56:51.816Z,96667.91
2019-04-07T03:59:40.528Z,96668.28
2019-04-07T04:02:44.406Z,96669.05
2019-04-07T04:05:42.111Z,96669.05
2019-04-07T04:08:40.142Z,96660.78
2019-04-07T04:11:34.853Z,96675.39
2019-04-07T04:14:09.269Z,96676.03
2019-04-07T04:16:42.954Z,96675.56
2019-04-07T04:19:12.990Z,96675.56
2019-04-07T04:21:43.595Z,96687.77
2019-04-07T04:24:14.373Z,96687.77
2019-04-07T04:26:44.138Z,96691.13
2019-04-07T04:29:13.747Z,96695.08
2019-04-07T04:31:43.437Z,96693.21
2019-04-07T04:34:13.935Z,96703.40
2019-04-07T04:36:43.431Z,96705.19
2019-04-07T04:39:13.085Z,96702.45
2019-04-07T04:41:44.782Z,96713.50
2019-04-07T04:44:14.328Z,96713.50
2019-04-07T04:46:43.725Z,96711.45
2019-04-07T04:49:13.562Z,96718.88
2019-04-07T04:51:43.111Z,96718.88
2019-04-07T04:54:12.675Z,96718.64
2019-04-07T04:56:42.452Z,96719.16
2019-04-07T04:59:12.953Z,96722.55
2019-04-07T05:01:42.353Z,96722.31
2019-04-07T05:04:12.587Z,96724.64
2019-04-07T05:06:42.312Z,96718.02
2019-04-07T05:09:12.320Z,96722.41
2019-04-07T05:11:41.917Z,96727.25
2019-04-07T05:14:11.439Z,96731.87
2019-04-07T05:16:40.761Z,96734.04
2019-04-07T05:19:10.125Z,96729.73
2019-04-07T05:21:39.528Z,96729.73
2019-04-07T05:24:09.294Z,96733.69
2019-04-07T05:26:39.703Z,96733.28
2019-04-07T05:29:09.617Z,96733.67
2019-04-07T05:31:39.022Z,96731.70
2019-04-07T05:34:08.391Z,96731.47
2019-04-07T05:36:37.971Z,96731.47
2019-04-07T05:39:08.673Z,96732.80
2019-04-07T05:41:38.473Z,96737.27
2019-04-07T05:44:07.965Z,96733.42
2019-04-07T05:46:40.108Z,96742.05
2019-04-07T05:49:08.570Z,96741.59
2019-04-07T05:51:37.951Z,96745.35
2019-04-07T05:54:07.319Z,96745.35
2019-04-07T05:56:37.021Z,96751.36
2019-04-07T05:59:09.826Z,96753.95
2019-04-07T06:01:37.810Z,96746.69
2019-04-07T06:04:07.603Z,96746.69
2019-04-07T06:06:39.985Z,96737.84
2019-04-07T06:09:08.362Z,96737.84
2019-04-07T06:11:37.897Z,96744.66
2019-04-07T06:14:07.383Z,96744.02
2019-04-07T06:16:37.737Z,96755.64
2019-04-07T06:19:08.100Z,96747.43
2019-04-07T06:21:38.654Z,96754.23
2019-04-07T06:24:08.177Z,96755.33
2019-04-07T06:26:40.888Z,96758.58
2019-04-07T06:29:09.419Z,96754.83
2019-04-07T06:31:39.072Z,96754.83
2019-04-07T06:34:10.503Z,96756.31
2019-04-07T06:36:39.741Z,96758.97
2019-04-07T06:39:09.587Z,96751.72
2019-04-07T06:41:39.105Z,96751.72
2019-04-07T06:44:13.283Z,96767.31
2019-04-07T06:46:58.558Z,96758.61
2019-04-07T06:49:46.323Z,96762.35
2019-04-07T06:52:28.572Z,96758.77
2019-04-07T06:55:26.643Z,96758.91
2019-04-07T06:58:21.815Z,96758.08
2019-04-07T07:01:10.183Z,96753.27
2019-04-07T07:03:57.509Z,96760.47
2019-04-07T07:06:55.677Z,96763.48
2019-04-07T07:09:43.184Z,96755.64
2019-04-07T07:12:35.605Z,96754.85
2019-04-07T07:15:33.766Z,96751.32
2019-04-07T07:18:09.120Z,96758.50
2019-04-07T07:21:01.685Z,96766.98
2019-04-07T07:23:34.712Z,96759.34
2019-04-07T07:26:04.338Z,96759.59
2019-04-07T07:28:33.816Z,96761.85
2019-04-07T07:31:03.251Z,96762.16
2019-04-07T07:33:33.392Z,96755.64
2019-04-07T07:36:03.417Z,96753.16
2019-04-07T07:38:33.524Z,96757.20
2019-04-07T07:41:04.734Z,96754.52
2019-04-07T07:43:34.259Z,96757.34
2019-04-07T07:46:03.573Z,96763.22
2019-04-07T07:48:32.937Z,96760.39
2019-04-07T07:51:02.499Z,96752.58
2019-04-07T07:53:32.950Z,96752.14
2019-04-07T07:56:03.198Z,96757.66
2019-04-07T07:58:33.649Z,96755.21
2019-04-07T08:01:04.295Z,96761.39
2019-04-07T08:03:35.096Z,96763.77
2019-04-07T08:06:08.220Z,96760.27
2019-04-07T08:08:36.376Z,96765.00
2019-04-07T08:11:06.024Z,96759.59
2019-04-07T08:13:42.256Z,96762.84
2019-04-07T08:16:07.131Z,96766.54
2019-04-07T08:18:39.405Z,96767.80
2019-04-07T08:21:07.718Z,96769.25
2019-04-07T08:23:37.377Z,96769.83
2019-04-07T08:26:06.840Z,96769.48
2019-04-07T08:28:36.887Z,96767.34
2019-04-07T08:31:06.563Z,96765.36
2019-04-07T08:33:36.081Z,96766.77
2019-04-07T08:36:09.694Z,96767.55
2019-04-07T08:38:36.744Z,96769.17
2019-04-07T08:41:09.648Z,96770.02
2019-04-07T08:43:37.605Z,96771.95
2019-04-07T08:46:07.432Z,96769.47
2019-04-07T08:48:37.430Z,96765.81
2019-04-07T08:51:07.060Z,96767.02
2019-04-07T08:53:36.448Z,96760.77
2019-04-07T08:56:08.375Z,96760.45
2019-04-07T08:58:38.950Z,96756.42
2019-04-07T09:01:08.590Z,96761.24
2019-04-07T09:03:38.744Z,96762.59
2019-04-07T09:06:08.138Z,96760.09
2019-04-07T09:08:39.043Z,96756.88
2019-04-07T09:11:14.648Z,96756.94
2019-04-07T09:13:51.079Z,96755.74
2019-04-07T09:16:32.269Z,96754.53
2019-04-07T09:19:39.749Z,96748.13
2019-04-07T09:22:30.361Z,96752.41
2019-04-07T09:25:09.692Z,96751.12
2019-04-07T09:27:57.260Z,96748.03
2019-04-07T09:30:31.900Z,96748.19
2019-04-07T09:33:12.692Z,96746.67
2019-04-07T09:36:06.927Z,96750.00
2019-04-07T09:39:04.532Z,96747.83
2019-04-07T09:41:59.558Z,96757.30
2019-04-07T09:44:48.062Z,96753.60
2019-04-07T09:47:26.771Z,96745.23
2019-04-07T09:50:22.034Z,96755.88
2019-04-07T09:53:18.511Z,96753.39
2019-04-07T09:56:03.780Z,96748.15
2019-04-07T09:58:46.970Z,96747.78
2019-04-07T10:01:35.374Z,96741.36
2019-04-07T10:04:29.874Z,96747.52
2019-04-07T10:07:21.072Z,96750.83
2019-04-07T10:10:18.204Z,96751.42
2019-04-07T10:13:05.550Z,96754.06
2019-04-07T10:15:59.839Z,96753.97
2019-04-07T10:18:51.066Z,96752.00
2019-04-07T10:21:36.090Z,96751.70
2019-04-07T10:24:25.877Z,96742.68
2019-04-07T10:27:06.070Z,96734.23
2019-04-07T10:30:00.276Z,96746.34
2019-04-07T10:32:55.258Z,96744.81
2019-04-07T10:35:33.522Z,96749.09
2019-04-07T10:38:25.790Z,96752.19
2019-04-07T10:41:07.601Z,96747.99
2019-04-07T10:44:14.961Z,96742.03
2019-04-07T10:46:54.950Z,96740.36
2019-04-07T10:49:38.207Z,96747.79
2019-04-07T10:52:41.763Z,96732.66
2019-04-07T10:55:39.552Z,96739.67
2019-04-07T10:58:17.256Z,96735.32
2019-04-07T11:01:06.353Z,96730.37
2019-04-07T11:03:54.773Z,96733.68
2019-04-07T11:06:50.070Z,96734.84
2019-04-07T11:09:37.708Z,96733.68
2019-04-07T11:12:39.501Z,96729.59
2019-04-07T11:15:27.072Z,96735.28
2019-04-07T11:18:14.682Z,96736.98
2019-04-07T11:21:15.500Z,96727.88
2019-04-07T11:24:02.028Z,96729.16
2019-04-07T11:27:05.793Z,96736.14
2019-04-07T11:29:40.015Z,96730.16
2019-04-07T11:32:26.114Z,96726.27
2019-04-07T11:35:14.888Z,96723.83
2019-04-07T11:37:55.013Z,96725.84
2019-04-07T11:40:48.561Z,96723.37
2019-04-07T11:43:32.579Z,96720.42
2019-04-07T11:46:36.113Z,96713.41
2019-04-07T11:49:27.480Z,96719.50
2019-04-07T11:52:02.194Z,96727.12
2019-04-07T11:54:38.131Z,96721.86
2019-04-07T11:57:17.528Z,96724.43
2019-04-07T12:00:04.763Z,96721.86
2019-04-07T12:02:42.350Z,96721.62
2019-04-07T12:05:31.063Z,96719.41
2019-04-07T12:08:36.296Z,96721.38
2019-04-07T12:11:36.887Z,96711.11
2019-04-07T12:14:16.352Z,96708.42
2019-04-07T12:17:05.795Z,96715.80
2019-04-07T12:20:10.851Z,96716.30
2019-04-07T12:22:49.346Z,96709.00
2019-04-07T12:25:31.328Z,96718.69
2019-04-07T12:28:18.885Z,96718.72
2019-04-07T12:30:55.202Z,96713.69
2019-04-07T12:33:46.284Z,96703.08
2019-04-07T12:36:30.244Z,96699.05
2019-04-07T12:39:16.212Z,96697.03
2019-04-07T12:41:57.833Z,96704.56
2019-04-07T12:44:41.819Z,96700.26
2019-04-07T12:47:36.615Z,96692.35
2019-04-07T12:50:31.693Z,96692.37
2019-04-07T12:53:19.723Z,96698.79
2019-04-07T12:56:05.907Z,96690.77
2019-04-07T12:59:00.284Z,96695.66
2019-04-07T13:01:53.891Z,96684.80
2019-04-07T13:04:40.807Z,96683.04
2019-04-07T13:07:27.177Z,96685.64
2019-04-07T13:10:14.392Z,96698.81
2019-04-07T13:13:05.755Z,96689.62
2019-04-07T13:15:58.877Z,96682.88
2019-04-07T13:18:47.550Z,96696.03
2019-04-07T13:21:41.309Z,96701.47
2019-04-07T13:24:30.343Z,96702.44
2019-04-07T13:27:10.269Z,96697.72
2019-04-07T13:29:56.741Z,96708.13
2019-04-07T13:32:55.088Z,96701.39
2019-04-07T13:35:47.647Z,96700.73
2019-04-07T13:38:27.030Z,96704.86
2019-04-07T13:41:18.731Z,96704.97
2019-04-07T13:44:04.888Z,96694.22
2019-04-07T13:46:59.202Z,96704.77
2019-04-07T13:49:47.496Z,96701.72
2019-04-07T13:52:55.003Z,96699.84
2019-04-07T13:55:44.154Z,96696.06
2019-04-07T13:58:27.270Z,96699.84
2019-04-07T14:01:26.749Z,96700.30
2019-04-07T14:04:13.964Z,96702.42
2019-04-07T14:07:02.506Z,96713.52
2019-04-07T14:09:46.370Z,96713.75
2019-04-07T14:12:27.046Z,96715.20
2019-04-07T14:15:21.672Z,96718.86
2019-04-07T14:18:13.520Z,96722.20
2019-04-07T14:21:09.506Z,96721.31
2019-04-07T14:23:58.354Z,96725.49
2019-04-07T14:26:44.568Z,96731.86
2019-04-07T14:29:32.669Z,96727.31
2019-04-07T14:32:16.126Z,96734.91
2019-04-07T14:35:02.851Z,96738.21
2019-04-07T14:37:54.704Z,96742.83
2019-04-07T14:40:30.164Z,96732.64
2019-04-07T14:43:24.742Z,96727.86
2019-04-07T14:46:13.308Z,96738.08
2019-04-07T14:49:01.603Z,96737.70
2019-04-07T14:51:57.027Z,96735.77
2019-04-07T14:54:37.765Z,96742.73
2019-04-07T14:57:35.202Z,96747.14
2019-04-07T15:00:33.559Z,96747.98
2019-04-07T15:03:02.992Z,96748.41
2019-04-07T15:05:35.355Z,96750.14
2019-04-07T15:08:17.721Z,96742.54
2019-04-07T15:10:50.278Z,96748.95
2019-04-07T15:13:27.054Z,96751.72
2019-04-07T15:15:53.119Z,96753.68
2019-04-07T15:18:22.988Z,96753.06
2019-04-07T15:20:52.809Z,96760.52
2019-04-07T15:23:22.980Z,96755.84
2019-04-07T15:25:52.821Z,96767.40
2019-04-07T15:28:22.577Z,96762.30
2019-04-07T15:30:52.130Z,96766.38
2019-04-07T15:33:22.336Z,96760.72
2019-04-07T15:35:52.390Z,96761.49
2019-04-07T15:38:24.825Z,96764.23
2019-04-07T15:40:52.950Z,96760.64
2019-04-07T15:43:22.410Z,96767.47
2019-04-07T15:45:52.222Z,96772.67
2019-04-07T15:48:25.818Z,96778.20
2019-04-07T15:50:52.953Z,96780.12
2019-04-07T15:53:22.405Z,96780.39
2019-04-07T15:56:01.796Z,96783.84
2019-04-07T15:58:26.784Z,96780.77
2019-04-07T16:00:54.853Z,96785.34
2019-04-07T16:03:24.690Z,96790.80
2019-04-07T16:05:54.536Z,96788.02
2019-04-07T16:08:26.022Z,96789.63
2019-04-07T16:10:55.755Z,96792.87
2019-04-07T16:13:26.647Z,96791.81
2019-04-07T16:15:56.292Z,96792.27
2019-04-07T16:18:26.340Z,96801.61
2019-04-07T16:20:56.376Z,96801.28
2019-04-07T16:23:26.227Z,96804.38
2019-04-07T16:25:58.417Z,96806.80
2019-04-07T16:28:27.385Z,96813.77
2019-04-07T16:30:56.988Z,96810.50
2019-04-07T16:33:27.203Z,96825.38
2019-04-07T16:35:56.688Z,96813.70
2019-04-07T16:38:28.354Z,96824.09
2019-04-07T16:40:57.263Z,96817.72
2019-04-07T16:43:30.587Z,96821.95
2019-04-07T16:45:58.291Z,96826.97
2019-04-07T16:48:28.322Z,96832.30
2019-04-07T16:50:57.976Z,96830.85
2019-04-07T16:53:28.092Z,96836.03
2019-04-07T16:55:58.776Z,96834.42
2019-04-07T16:58:30.598Z,96839.04
2019-04-07T17:01:00.051Z,96836.59
2019-04-07T17:03:29.562Z,96841.30
2019-04-07T17:06:01.478Z,96840.45
2019-04-07T17:08:30.278Z,96846.16
2019-04-07T17:11:05.215Z,96845.95
2019-04-07T17:13:38.790Z,96839.81
2019-04-07T17:16:02.798Z,96843.53
2019-04-07T17:18:39.437Z,96839.34
2019-04-07T17:21:20.404Z,96846.97
2019-04-07T17:23:53.158Z,96846.67
2019-04-07T17:26:23.549Z,96845.41
2019-04-07T17:28:53.112Z,96846.86
2019-04-07T17:31:23.984Z,96846.02
2019-04-07T17:33:53.997Z,96857.81
2019-04-07T17:36:25.269Z,96858.11
2019-04-07T17:39:13.228Z,96859.25
2019-04-07T17:41:43.528Z,96858.99
2019-04-07T17:44:39.134Z,96864.53
2019-04-07T17:47:36.456Z,96856.30
2019-04-07T17:50:23.526Z,96864.38
2019-04-07T17:53:05.311Z,96869.45
2019-04-07T17:55:48.812Z,96871.03
2019-04-07T17:58:32.340Z,96878.82
2019-04-07T18:01:23.531Z,96879.66
2019-04-07T18:04:15.561Z,96894.39
2019-04-07T18:07:21.912Z,96885.81
2019-04-07T18:09:59.541Z,96891.58
2019-04-07T18:12:51.509Z,96900.17
2019-04-07T18:15:46.697Z,96893.83
2019-04-07T18:18:35.201Z,96901.08
2019-04-07T18:21:23.536Z,96902.37
2019-04-07T18:24:06.112Z,96907.63
2019-04-07T18:26:42.408Z,96906.53
2019-04-07T18:29:38.388Z,96916.14
2019-04-07T18:32:36.260Z,96914.11
2019-04-07T18:35:30.822Z,96922.50
2019-04-07T18:38:34.083Z,96922.81
2019-04-07T18:41:34.073Z,96924.74
2019-04-07T18:44:25.160Z,96930.37
2019-04-07T18:47:14.935Z,96936.37
2019-04-07T18:50:20.600Z,96939.89
2019-04-07T18:52:57.510Z,96943.98
2019-04-07T18:55:55.756Z,96954.27
2019-04-07T18:58:42.707Z,96953.97
2019-04-07T19:01:30.439Z,96959.16
2019-04-07T19:04:31.575Z,96958.13
2019-04-07T19:07:13.071Z,96965.23
2019-04-07T19:09:51.891Z,96964.80
2019-04-07T19:12:38.556Z,96966.23
2019-04-07T19:15:24.047Z,96966.48
2019-04-07T19:18:31.112Z,96968.13
2019-04-07T19:21:18.364Z,96964.05
2019-04-07T19:24:16.415Z,96965.13
2019-04-07T19:26:56.245Z,96963.77
2019-04-07T19:29:48.797Z,96961.06
2019-04-07T19:32:36.876Z,96966.69
2019-04-07T19:35:19.498Z,96964.99
2019-04-07T19:38:06.858Z,96961.56
2019-04-07T19:41:13.744Z,96959.77
2019-04-07T19:44:07.964Z,96964.41
2019-04-07T19:47:03.101Z,96954.59
2019-04-07T19:50:00.688Z,96953.94
2019-04-07T19:52:49.860Z,96957.12
2019-04-07T19:55:28.276Z,96951.02
2019-04-07T19:58:09.787Z,96955.99
2019-04-07T20:01:01.751Z,96955.11
2019-04-07T20:03:56.459Z,96948.78
2019-04-07T20:06:44.131Z,96955.20
2019-04-07T20:09:23.588Z,96951.93
2019-04-07T20:12:12.786Z,96955.55
2019-04-07T20:15:05.578Z,96956.93
2019-04-07T20:17:53.380Z,96950.16
2019-04-07T20:20:53.694Z,96954.66
2019-04-07T20:23:41.515Z,96957.49
2019-04-07T20:26:45.179Z,96956.02
2019-04-07T20:29:41.391Z,96957.37
2019-04-07T20:32:26.251Z,96956.11
2019-04-07T20:35:20.992Z,96955.79
2019-04-07T20:38:21.495Z,96950.59
2019-04-07T20:41:00.730Z,96951.73
2019-04-07T20:43:40.544Z,96952.63
2019-04-07T20:46:38.262Z,96956.58
2019-04-07T20:49:26.424Z,96957.81
2019-04-07T20:52:15.652Z,96957.02
2019-04-07T20:55:08.410Z,96955.79
2019-04-07T20:58:16.949Z,96958.81
2019-04-07T21:00:58.559Z,96957.59
2019-04-07T21:03:45.055Z,96967.30
2019-04-07T21:06:31.741Z,96967.95
2019-04-07T21:09:31.618Z,96969.31
2019-04-07T21:12:12.761Z,96966.60
2019-04-07T21:15:16.192Z,96972.27
2019-04-07T21:17:50.245Z,96978.58
2019-04-07T21:20:39.043Z,96983.77
2019-04-07T21:23:36.141Z,96985.66
2019-04-07T21:26:24.506Z,96984.00
2019-04-07T21:29:11.560Z,96984.22
2019-04-07T21:32:03.542Z,96978.77
2019-04-07T21:34:53.556Z,96975.13
2019-04-07T21:37:51.934Z,96969.26
2019-04-07T21:40:42.303Z,96972.47
2019-04-07T21:43:36.718Z,96968.63
2019-04-07T21:46:43.591Z,96959.14
2019-04-07T21:49:20.546Z,96954.07
2019-04-07T21:52:00.863Z,96951.93
2019-04-07T21:54:51.724Z,96953.19
2019-04-07T21:57:53.610Z,96957.38
2019-04-07T22:00:37.601Z,96956.02
2019-04-07T22:03:24.941Z,96956.34
2019-04-07T22:06:19.441Z,96965.25
2019-04-07T22:09:06.921Z,96967.95
2019-04-07T22:11:36.753Z,96963.02
2019-04-07T22:14:07.716Z,96965.03
2019-04-07T22:16:37.339Z,96964.02
2019-04-07T22:19:10.613Z,96964.46
2019-04-07T22:21:38.261Z,96962.77
2019-04-07T22:24:07.712Z,96967.73
2019-04-07T22:26:37.158Z,96971.48
2019-04-07T22:29:07.662Z,96974.28
2019-04-07T22:31:46.618Z,96970.91
2019-04-07T22:34:16.607Z,96972.48
2019-04-07T22:36:47.919Z,96972.70
2019-04-07T22:39:17.078Z,96979.15
2019-04-07T22:41:46.458Z,96980.03
2019-04-07T22:44:19.942Z,96984.21
2019-04-07T22:46:49.536Z,96976.78
2019-04-07T22:49:18.121Z,96979.94
2019-04-07T22:51:49.489Z,96984.88
2019-04-07T22:54:18.875Z,96982.84
2019-04-07T22:56:48.792Z,96991.19
2019-04-07T22:59:18.427Z,96990.77
2019-04-07T23:01:47.827Z,96992.80
2019-04-07T23:04:18.189Z,96998.90
2019-04-07T23:06:48.069Z,96998.63
2019-04-07T23:09:17.667Z,96999.22
2019-04-07T23:11:47.041Z,96998.22
2019-04-07T23:14:16.422Z,96993.47
2019-04-07T23:16:46.449Z,96993.94
2019-04-07T23:19:16.474Z,96997.09
2019-04-07T23:21:46.044Z,96995.52
2019-04-07T23:24:15.596Z,96992.11
2019-04-07T23:26:45.016Z,96994.38
2019-04-07T23:29:14.487Z,96991.88
2019-04-07T23:31:44.150Z,96992.67
2019-04-07T23:34:13.509Z,96993.80
2019-04-07T23:36:43.622Z,96990.19
2019-04-07T23:39:13.146Z,96991.66
2019-04-07T23:41:43.486Z,96991.44
2019-04-07T23:44:13.044Z,96990.66
2019-04-07T23:46:43.468Z,96992.13
2019-04-07T23:49:13.142Z,96998.77
2019-04-07T23:51:43.467Z,96992.34
2019-04-07T23:54:14.518Z,96996.41
2019-04-07T23:56:45.054Z,97001.12
2019-04-07T23:59:14.793Z,97005.97
